Time;durP1;ratioP1;P1;durP2;ratioP2;P2;SDS_P1;SDS_P2;PMS_P1;PMS_P2;Temp;Humidity;BMP_temperature;BMP_pressure;BME280_temperature;BME280_humidity;BME280_pressure;Samples;Min_cycle;Max_cycle;Signal;HPM_P1;HPM_P2
2022/01/29 00:00:25;;;;;;;4.20;3.10;;;;;;;1.96;50.15;95360.53;5143198;27;20206;-69
2022/01/29 00:02:51;;;;;;;4.13;2.93;;;;;;;1.94;49.95;95355.41;5144419;27;20301;-69
2022/01/29 00:05:17;;;;;;;4.70;2.80;;;;;;;1.89;50.23;95349.66;5142387;27;20290;-66
2022/01/29 00:07:42;;;;;;;3.00;2.70;;;;;;;1.94;50.28;95354.59;5140799;27;20230;-68
2022/01/29 00:10:10;;;;;;;3.43;3.00;;;;;;;2.01;50.22;95355.91;5144050;27;20214;-66
2022/01/29 00:12:36;;;;;;;5.03;3.53;;;;;;;1.96;50.83;95358.75;5143088;27;20209;-68
2022/01/29 00:15:02;;;;;;;4.10;3.10;;;;;;;1.91;50.91;95375.50;5143199;27;20206;-68
2022/01/29 00:17:27;;;;;;;4.00;3.23;;;;;;;1.88;51.06;95365.31;5142239;27;20289;-67
2022/01/29 00:19:53;;;;;;;3.60;3.20;;;;;;;1.88;51.06;95363.56;5141365;27;20240;-65
2022/01/29 00:22:19;;;;;;;4.73;3.70;;;;;;;1.87;51.30;95368.81;5139591;27;20241;-66
2022/01/29 00:24:44;;;;;;;4.10;3.10;;;;;;;1.84;51.35;95369.84;5138970;27;20270;-68
2022/01/29 00:27:10;;;;;;;5.33;3.40;;;;;;;1.83;51.56;95364.75;5143169;27;20202;-68
2022/01/29 00:29:41;;;;;;;3.23;2.93;;;;;;;1.85;51.62;95374.13;5139380;27;20286;-67
2022/01/29 00:32:08;;;;;;;4.60;3.17;;;;;;;1.86;51.60;95364.56;5143740;27;20317;-69
2022/01/29 00:34:34;;;;;;;5.87;3.73;;;;;;;1.85;51.77;95362.91;5142034;27;20305;-69
2022/01/29 00:37:02;;;;;;;4.63;3.57;;;;;;;1.90;51.67;95363.50;5138064;27;20231;-70
2022/01/29 00:39:28;;;;;;;4.27;3.63;;;;;;;1.84;52.03;95356.03;5141385;27;20262;-68
2022/01/29 00:41:53;;;;;;;6.03;3.70;;;;;;;1.88;52.04;95368.75;5140937;27;20230;-67
2022/01/29 00:44:19;;;;;;;6.37;3.80;;;;;;;1.93;51.92;95373.69;5124748;27;20211;-66
2022/01/29 00:46:45;;;;;;;4.27;3.60;;;;;;;1.89;52.16;95360.03;5125230;27;20234;-69
2022/01/29 00:49:11;;;;;;;5.13;3.70;;;;;;;1.83;52.39;95367.34;5120087;28;20223;-68
2022/01/29 00:51:37;;;;;;;4.50;3.53;;;;;;;1.84;52.61;95358.63;5120864;27;20206;-68
2022/01/29 00:54:03;;;;;;;5.13;3.70;;;;;;;1.98;52.58;95369.06;5144561;27;20218;-67
2022/01/29 00:56:28;;;;;;;5.27;3.90;;;;;;;1.97;52.77;95372.56;5142856;27;20211;-68
2022/01/29 00:58:54;;;;;;;4.83;4.13;;;;;;;1.90;52.91;95360.91;5130190;27;20254;-67
2022/01/29 01:01:19;;;;;;;5.77;4.13;;;;;;;1.93;53.43;95363.31;5118875;28;20495;-65
2022/01/29 01:03:45;;;;;;;5.93;4.47;;;;;;;1.95;53.57;95366.63;5121031;28;20209;-67
2022/01/29 01:06:10;;;;;;;5.17;4.10;;;;;;;1.92;53.58;95367.63;5118601;28;20196;-66
2022/01/29 01:08:36;;;;;;;5.37;4.27;;;;;;;2.04;53.67;95375.63;5120994;28;20222;-65
2022/01/29 01:11:04;;;;;;;5.00;4.50;;;;;;;1.91;53.79;95368.56;5134682;27;20596;-66
2022/01/29 01:13:30;;;;;;;5.40;4.90;;;;;;;1.89;54.21;95367.81;5135070;27;20231;-67
2022/01/29 01:15:56;;;;;;;7.30;4.70;;;;;;;1.90;54.41;95359.13;5120292;27;20297;-67
2022/01/29 01:18:21;;;;;;;7.53;5.07;;;;;;;1.87;54.84;95364.50;5144053;27;20206;-66
2022/01/29 01:20:47;;;;;;;5.87;4.53;;;;;;;1.88;54.47;95360.97;5142573;27;20226;-66
2022/01/29 01:23:12;;;;;;;7.30;4.77;;;;;;;1.92;54.71;95348.66;5141508;27;20297;-65
2022/01/29 01:25:38;;;;;;;7.07;4.47;;;;;;;1.72;55.48;95342.88;5142225;27;20228;-66
2022/01/29 01:28:04;;;;;;;5.90;4.53;;;;;;;1.87;54.78;95348.09;5137298;27;20227;-68
2022/01/29 01:30:29;;;;;;;6.37;4.23;;;;;;;1.86;54.82;95346.44;5139518;27;20222;-67
2022/01/29 01:32:55;;;;;;;5.37;3.87;;;;;;;1.97;54.46;95344.03;5139392;27;20238;-65
2022/01/29 01:35:26;;;;;;;6.93;4.20;;;;;;;1.78;54.89;95349.47;5140047;27;20286;-68
2022/01/29 01:37:57;;;;;;;5.33;4.03;;;;;;;1.72;55.47;95340.28;5141517;27;20221;-66
2022/01/29 01:40:24;;;;;;;6.40;4.60;;;;;;;1.71;55.30;95332.59;5144587;27;20320;-65
2022/01/29 01:42:53;;;;;;;6.00;4.10;;;;;;;1.63;55.51;95335.66;5140687;27;20225;-64
2022/01/29 01:45:18;;;;;;;5.43;4.10;;;;;;;1.60;55.80;95342.75;5140268;27;20206;-68
2022/01/29 01:47:44;;;;;;;5.80;4.23;;;;;;;1.66;55.64;95348.44;5140409;27;20216;-66
2022/01/29 01:50:09;;;;;;;5.67;4.50;;;;;;;1.63;55.94;95351.22;5141128;27;20222;-65
2022/01/29 01:52:35;;;;;;;5.40;4.23;;;;;;;1.72;55.91;95349.84;5136446;28;20286;-67
2022/01/29 01:55:01;;;;;;;6.10;4.50;;;;;;;1.66;55.93;95351.03;5141926;27;20234;-65
2022/01/29 01:57:26;;;;;;;5.60;4.30;;;;;;;1.69;56.16;95353.44;5142470;28;20234;-65
2022/01/29 01:59:52;;;;;;;5.60;4.40;;;;;;;1.62;56.56;95348.69;5139351;27;20287;-66
2022/01/29 02:02:17;;;;;;;6.03;4.40;;;;;;;1.58;56.41;95336.81;5138750;28;20236;-65
2022/01/29 02:04:43;;;;;;;5.20;4.63;;;;;;;1.55;56.76;95343.03;5138948;28;20301;-65
2022/01/29 02:07:08;;;;;;;6.03;4.67;;;;;;;1.51;56.80;95341.56;5135517;28;20227;-64
2022/01/29 02:09:34;;;;;;;5.90;4.50;;;;;;;1.56;57.02;95359.44;5137125;27;20198;-66
2022/01/29 02:12:04;;;;;;;5.10;4.60;;;;;;;1.51;57.02;95357.09;5138999;27;20261;-66
2022/01/29 02:14:32;;;;;;;5.03;4.23;;;;;;;1.56;57.14;95359.44;5140793;28;20286;-68
2022/01/29 02:17:00;;;;;;;5.47;4.87;;;;;;;1.52;57.23;95356.16;5138127;28;20218;-67
2022/01/29 02:19:26;;;;;;;6.40;4.73;;;;;;;1.63;56.74;95356.41;5139021;28;20282;-65
2022/01/29 02:21:52;;;;;;;5.63;4.60;;;;;;;1.60;57.04;95366.09;5134369;27;20206;-65
2022/01/29 02:24:18;;;;;;;5.77;4.60;;;;;;;1.52;57.16;95356.16;5135745;28;20209;-66
2022/01/29 02:26:44;;;;;;;6.43;5.10;;;;;;;1.61;57.36;95363.44;5138867;28;20230;-66
2022/01/29 02:29:09;;;;;;;6.20;4.83;;;;;;;1.63;56.85;95366.78;5139497;28;20234;-68
2022/01/29 02:31:35;;;;;;;5.80;4.90;;;;;;;1.54;57.39;95369.88;5140090;27;20223;-67
2022/01/29 02:34:00;;;;;;;6.27;4.87;;;;;;;1.48;57.57;95368.47;5139085;28;20335;-66
2022/01/29 02:36:26;;;;;;;6.23;4.57;;;;;;;1.50;57.42;95369.22;5139783;28;20258;-68
2022/01/29 02:38:51;;;;;;;6.53;5.10;;;;;;;1.52;57.48;95361.34;5139226;28;20225;-67
2022/01/29 02:41:18;;;;;;;5.30;4.77;;;;;;;1.49;57.66;95358.94;5138347;28;20294;-65
2022/01/29 02:43:48;;;;;;;4.93;4.23;;;;;;;1.55;57.58;95355.97;5140501;28;20286;-66
2022/01/29 02:48:42;;;;;;;7.10;4.67;;;;;;;1.65;56.86;95367.50;5140552;27;20209;-68
2022/01/29 02:51:07;;;;;;;4.97;4.43;;;;;;;1.59;57.28;95365.25;5142085;28;20194;-67
2022/01/29 02:53:32;;;;;;;5.33;4.67;;;;;;;1.58;57.12;95368.78;5137765;28;20215;-66
2022/01/29 02:55:58;;;;;;;5.83;4.80;;;;;;;1.64;57.22;95375.38;5140771;27;20279;-66
2022/01/29 02:58:24;;;;;;;4.63;4.20;;;;;;;1.62;56.77;95372.84;5141927;27;20229;-68
2022/01/29 03:00:49;;;;;;;6.03;4.47;;;;;;;1.58;57.34;95375.72;5143417;27;20302;-64
2022/01/29 03:03:15;;;;;;;5.37;4.83;;;;;;;1.55;57.72;95368.94;5142787;27;20205;-67
2022/01/29 03:05:41;;;;;;;5.90;4.63;;;;;;;1.56;57.47;95365.44;5141345;27;20242;-65
2022/01/29 03:08:06;;;;;;;5.17;4.67;;;;;;;1.51;57.84;95370.88;5143195;27;20262;-65
2022/01/29 03:10:32;;;;;;;5.43;4.57;;;;;;;1.64;57.66;95372.78;5144228;27;20210;-68
2022/01/29 03:12:57;;;;;;;8.70;4.80;;;;;;;1.67;57.20;95382.97;5143455;27;20221;-68
2022/01/29 03:15:23;;;;;;;5.43;4.40;;;;;;;1.54;56.95;95369.88;5160042;27;20215;-66
2022/01/29 03:17:48;;;;;;;6.20;4.60;;;;;;;1.56;56.74;95374.97;5157443;27;20248;-65
2022/01/29 03:20:14;;;;;;;5.33;4.67;;;;;;;1.47;56.67;95353.00;5144736;27;20281;-69
2022/01/29 03:22:40;;;;;;;4.37;3.93;;;;;;;1.46;56.94;95352.16;5143920;27;20218;-68
2022/01/29 03:25:06;;;;;;;7.27;4.73;;;;;;;1.38;57.09;95346.59;5144245;27;20227;-65
2022/01/29 03:27:32;;;;;;;6.80;4.47;;;;;;;1.36;56.88;95345.84;5146089;27;20236;-66
2022/01/29 03:29:57;;;;;;;5.07;4.40;;;;;;;1.40;56.93;95354.28;5143505;27;20218;-67
2022/01/29 03:32:23;;;;;;;4.53;4.10;;;;;;;1.38;56.45;95356.13;5142909;27;20302;-67
2022/01/29 03:34:48;;;;;;;5.20;4.70;;;;;;;1.44;56.05;95355.78;5141260;27;20222;-68
2022/01/29 03:37:14;;;;;;;4.87;4.37;;;;;;;1.54;55.84;95359.50;5160132;27;20218;-68
2022/01/29 03:39:42;;;;;;;4.20;3.80;;;;;;;1.51;55.39;95363.09;5141042;27;20229;-70
2022/01/29 03:42:09;;;;;;;5.97;3.90;;;;;;;1.43;55.42;95367.06;5144078;27;20206;-69
2022/01/29 03:44:35;;;;;;;5.00;3.60;;;;;;;1.38;55.15;95356.13;5143900;27;20215;-70
2022/01/29 03:47:00;;;;;;;5.13;3.50;;;;;;;1.45;55.12;95362.66;5141679;27;20221;-67
2022/01/29 03:49:26;;;;;;;4.90;3.90;;;;;;;1.51;54.89;95354.50;5140031;27;20238;-69
2022/01/29 03:51:52;;;;;;;4.73;3.70;;;;;;;1.50;54.98;95360.63;5143137;27;20190;-66
2022/01/29 03:54:18;;;;;;;4.63;4.00;;;;;;;1.33;55.39;95357.22;5140470;27;20219;-68
2022/01/29 03:56:43;;;;;;;4.40;3.60;;;;;;;1.35;55.48;95364.09;5140735;27;20206;-68
2022/01/29 03:59:09;;;;;;;3.87;3.17;;;;;;;1.39;55.57;95356.06;5123922;27;20266;-66
2022/01/29 04:01:34;;;;;;;3.70;3.40;;;;;;;1.33;55.65;95356.38;5156147;27;20226;-66
2022/01/29 04:04:00;;;;;;;4.30;3.47;;;;;;;1.32;56.19;95355.56;5137936;27;20226;-67
2022/01/29 04:06:26;;;;;;;4.63;3.37;;;;;;;1.28;56.33;95354.09;5121018;28;20199;-66
2022/01/29 04:08:52;;;;;;;4.17;3.43;;;;;;;1.28;56.39;95351.50;5117743;28;20215;-66
2022/01/29 04:11:18;;;;;;;5.53;3.70;;;;;;;1.35;56.36;95361.50;5128462;27;20233;-65
2022/01/29 04:13:46;;;;;;;4.33;3.77;;;;;;;1.36;56.07;95363.16;5139136;27;20299;-67
2022/01/29 04:16:14;;;;;;;5.50;4.07;;;;;;;1.35;56.72;95356.31;5143390;27;20224;-67
2022/01/29 04:18:40;;;;;;;5.03;3.40;;;;;;;1.29;56.69;95347.97;5140542;27;20198;-68
2022/01/29 04:21:06;;;;;;;4.23;3.73;;;;;;;1.32;56.36;95352.97;5142760;27;20219;-66
2022/01/29 04:23:33;;;;;;;4.13;3.60;;;;;;;1.24;57.17;95355.16;5140642;27;20222;-68
2022/01/29 04:26:00;;;;;;;4.77;3.90;;;;;;;1.28;56.65;95359.25;5139722;27;20267;-67
2022/01/29 04:28:31;;;;;;;5.27;4.00;;;;;;;1.28;56.56;95356.66;5134816;27;20227;-65
2022/01/29 04:31:01;;;;;;;3.87;3.10;;;;;;;1.29;56.57;95347.13;5125126;27;20237;-67
2022/01/29 04:33:30;;;;;;;4.60;3.77;;;;;;;1.26;56.57;95358.50;5123114;27;20207;-66
2022/01/29 04:35:58;;;;;;;4.10;3.70;;;;;;;1.27;56.71;95349.81;5140868;27;20226;-68
2022/01/29 04:38:24;;;;;;;4.63;3.70;;;;;;;1.22;56.60;95349.22;5141568;27;20233;-68
2022/01/29 04:40:49;;;;;;;4.03;3.40;;;;;;;1.37;55.95;95355.31;5141149;27;20238;-66
2022/01/29 04:43:15;;;;;;;5.03;3.50;;;;;;;1.28;55.93;95356.66;5140521;27;20213;-66
2022/01/29 04:45:41;;;;;;;3.73;3.20;;;;;;;1.40;55.69;95364.66;5143073;27;20194;-66
2022/01/29 04:48:06;;;;;;;4.63;3.67;;;;;;;1.46;55.04;95367.72;5141797;27;20205;-65
2022/01/29 04:50:32;;;;;;;6.17;3.30;;;;;;;1.44;54.95;95371.31;5144606;27;20210;-66
2022/01/29 04:52:57;;;;;;;11.50;3.40;;;;;;;1.29;55.62;95373.88;5143721;27;20236;-66
2022/01/29 04:55:23;;;;;;;4.50;3.33;;;;;;;1.33;55.01;95359.81;5143315;27;20318;-67
2022/01/29 04:57:49;;;;;;;3.93;3.50;;;;;;;1.29;55.69;95368.69;5140472;27;20231;-67
2022/01/29 05:00:21;;;;;;;3.50;3.20;;;;;;;1.21;56.40;95362.28;5140601;27;20199;-65
2022/01/29 05:02:52;;;;;;;4.13;3.60;;;;;;;1.22;56.12;95364.78;5143045;27;20226;-67
2022/01/29 05:05:18;;;;;;;4.63;3.20;;;;;;;1.26;56.08;95370.63;5140349;27;20211;-68
2022/01/29 05:07:44;;;;;;;6.60;5.00;;;;;;;1.27;56.06;95365.34;5143398;27;20206;-67
2022/01/29 05:10:10;;;;;;;4.20;3.80;;;;;;;1.29;56.46;95373.88;5141287;27;20220;-69
2022/01/29 05:13:12;;;;;;;4.23;3.30;;;;;;;1.31;56.34;95377.22;5141943;27;20198;-68
2022/01/29 05:15:38;;;;;;;3.90;3.50;;;;;;;1.27;56.36;95370.53;5136032;27;20278;-66
2022/01/29 05:29:02;;;;;;;4.50;4.10;;;;;;;1.26;57.35;95381.00;5140566;27;20274;-66
2022/01/29 05:31:27;;;;;;;6.20;4.40;;;;;;;1.20;57.76;95389.91;5139594;27;20230;-68
2022/01/29 05:33:53;;;;;;;5.33;3.87;;;;;;;1.19;57.92;95383.06;5140513;27;20242;-68
2022/01/29 05:36:19;;;;;;;5.03;4.30;;;;;;;1.23;58.06;95389.78;5142592;27;20282;-67
2022/01/29 05:38:44;;;;;;;5.20;4.47;;;;;;;1.18;58.55;95378.84;5141462;27;20234;-68
2022/01/29 05:41:09;;;;;;;5.00;4.43;;;;;;;1.23;58.39;95394.09;5141081;27;20253;-67
2022/01/29 05:43:35;;;;;;;4.70;4.30;;;;;;;1.10;58.83;95393.97;5141543;27;20293;-66
2022/01/29 05:46:01;;;;;;;4.93;4.43;;;;;;;1.13;58.75;95400.72;5135903;27;20312;-66
2022/01/29 05:48:26;;;;;;;6.20;4.83;;;;;;;1.19;58.89;95416.75;5138512;27;20233;-66
2022/01/29 05:50:52;;;;;;;5.60;5.10;;;;;;;1.08;59.26;95407.00;5137728;27;20222;-67
2022/01/29 05:53:17;;;;;;;5.20;4.70;;;;;;;1.22;58.86;95405.38;5135690;27;20270;-67
2022/01/29 05:55:43;;;;;;;5.93;5.07;;;;;;;1.21;59.08;95419.28;5137226;27;20294;-66
2022/01/29 05:58:09;;;;;;;6.07;5.07;;;;;;;1.18;59.13;95428.03;5136233;27;20202;-66
2022/01/29 06:00:34;;;;;;;5.13;4.63;;;;;;;1.17;58.98;95431.53;5133478;27;20273;-66
2022/01/29 06:03:05;;;;;;;5.53;4.60;;;;;;;1.18;59.20;95435.81;5138829;27;20202;-65
2022/01/29 06:05:31;;;;;;;6.83;4.87;;;;;;;1.14;59.21;95441.25;5138744;27;20225;-68
2022/01/29 06:07:57;;;;;;;4.80;4.40;;;;;;;1.06;59.40;95437.31;5140704;28;20297;-66
2022/01/29 06:10:23;;;;;;;6.23;5.13;;;;;;;1.03;59.89;95445.25;5140101;27;20214;-65
2022/01/29 06:13:06;;;;;;;6.73;5.23;;;;;;;1.11;59.85;95439.66;5139829;27;20202;-65
2022/01/29 06:15:34;;;;;;;11.27;5.10;;;;;;;1.11;59.67;95439.66;5139815;28;20222;-67
2022/01/29 06:18:01;;;;;;;5.40;4.90;;;;;;;1.17;59.64;95447.06;5114369;28;20215;-64
2022/01/29 06:20:26;;;;;;;5.80;5.23;;;;;;;1.31;59.34;95443.75;5121982;28;20223;-66
2022/01/29 06:22:52;;;;;;;5.67;5.07;;;;;;;1.26;59.29;95444.00;5120319;28;20329;-68
2022/01/29 06:25:18;;;;;;;6.50;5.53;;;;;;;1.31;59.38;95448.94;5117490;27;20219;-65
2022/01/29 06:27:43;;;;;;;5.20;4.70;;;;;;;1.31;59.06;95449.75;5118225;27;20263;-67
2022/01/29 06:30:09;;;;;;;7.03;5.40;;;;;;;1.36;59.17;95441.72;5119560;28;20226;-65
2022/01/29 06:32:35;;;;;;;6.07;5.47;;;;;;;1.39;59.03;95441.56;5128266;27;20229;-67
2022/01/29 06:35:00;;;;;;;5.93;5.40;;;;;;;1.39;58.88;95440.72;5138014;27;20219;-66
2022/01/29 06:37:26;;;;;;;6.87;5.10;;;;;;;1.40;59.05;95445.00;5141270;27;20223;-65
2022/01/29 06:39:51;;;;;;;5.67;5.07;;;;;;;1.42;58.36;95448.34;5138881;27;20252;-67
2022/01/29 06:42:16;;;;;;;5.60;5.00;;;;;;;1.49;58.39;95460.00;5143774;27;20203;-66
2022/01/29 06:44:42;;;;;;;5.60;5.10;;;;;;;1.54;58.41;95455.41;5140388;27;20222;-67
2022/01/29 06:47:07;;;;;;;6.20;5.60;;;;;;;1.54;58.23;95450.22;5141982;27;20305;-63
2022/01/29 06:49:33;;;;;;;5.50;5.00;;;;;;;1.68;57.65;95452.84;5141863;27;20261;-67
2022/01/29 06:51:58;;;;;;;5.30;4.83;;;;;;;1.77;57.54;95457.53;5142633;27;20241;-65
2022/01/29 06:54:24;;;;;;;5.20;4.67;;;;;;;1.72;57.29;95464.72;5144485;27;20218;-67
2022/01/29 06:56:50;;;;;;;5.43;4.90;;;;;;;1.70;57.79;95466.56;5146057;27;20275;-67
2022/01/29 06:59:15;;;;;;;5.10;4.60;;;;;;;1.76;57.45;95455.00;5141759;27;20226;-65
2022/01/29 07:01:41;;;;;;;5.40;4.90;;;;;;;1.82;57.53;95459.88;5133156;27;20254;-70
2022/01/29 07:04:06;;;;;;;5.13;4.70;;;;;;;1.71;57.53;95457.91;5121452;28;20215;-65
2022/01/29 07:06:32;;;;;;;5.60;4.57;;;;;;;1.74;57.64;95469.84;5121471;28;20219;-67
2022/01/29 07:08:58;;;;;;;7.57;4.93;;;;;;;1.73;57.79;95481.94;5138444;27;20296;-65
2022/01/29 07:11:24;;;;;;;4.53;4.10;;;;;;;1.73;57.78;95481.13;5122996;27;20238;-65
2022/01/29 07:14:01;;;;;;;6.30;5.70;;;;;;;1.70;57.77;95479.53;5120494;28;20271;-66
2022/01/29 07:16:28;;;;;;;6.30;5.57;;;;;;;1.79;57.66;95479.94;5122740;28;20286;-65
2022/01/29 07:18:53;;;;;;;5.17;4.67;;;;;;;1.89;57.25;95481.09;5123450;27;20231;-65
2022/01/29 07:21:19;;;;;;;5.23;4.70;;;;;;;1.91;57.42;95485.25;5128928;27;20234;-65
2022/01/29 07:23:44;;;;;;;5.70;4.97;;;;;;;1.95;57.65;95485.91;5140718;27;20244;-66
2022/01/29 07:26:10;;;;;;;5.43;5.03;;;;;;;2.06;57.07;95496.53;5142039;27;20247;-66
2022/01/29 07:28:35;;;;;;;5.97;5.20;;;;;;;2.03;57.34;95486.31;5141665;27;20218;-65
2022/01/29 07:31:01;;;;;;;5.60;5.00;;;;;;;1.96;57.24;95482.41;5144832;27;20225;-65
2022/01/29 07:33:27;;;;;;;5.10;4.60;;;;;;;1.86;57.62;95484.69;5143004;27;20222;-65
2022/01/29 07:35:55;;;;;;;5.13;4.63;;;;;;;1.80;57.69;95497.19;5142573;27;21092;-65
2022/01/29 07:38:21;;;;;;;6.57;5.43;;;;;;;1.69;58.05;95498.63;5145873;27;20222;-65
2022/01/29 07:40:46;;;;;;;6.13;5.37;;;;;;;1.69;58.17;95508.16;5141794;27;20238;-65
2022/01/29 07:43:12;;;;;;;5.40;4.90;;;;;;;1.76;58.23;95504.28;5140208;27;20215;-65
2022/01/29 07:45:37;;;;;;;6.40;5.80;;;;;;;1.94;57.52;95516.19;5143211;27;20198;-66
2022/01/29 07:48:03;;;;;;;6.10;5.50;;;;;;;1.83;58.07;95509.97;5145760;27;20209;-65
2022/01/29 07:50:28;;;;;;;5.40;4.90;;;;;;;1.79;58.01;95506.69;5142682;27;20306;-65
2022/01/29 07:52:54;;;;;;;7.23;5.70;;;;;;;1.90;57.58;95498.34;5140965;27;20219;-65
2022/01/29 07:55:20;;;;;;;7.53;5.43;;;;;;;1.98;57.68;95512.53;5143087;27;20245;-65
2022/01/29 07:57:45;;;;;;;6.50;5.90;;;;;;;2.02;57.36;95517.53;5142218;27;20221;-65
2022/01/29 08:00:12;;;;;;;6.13;5.53;;;;;;;2.13;57.33;95523.75;5141002;27;20255;-66
2022/01/29 08:02:37;;;;;;;6.07;5.57;;;;;;;2.07;56.92;95515.50;5139579;27;20214;-65
2022/01/29 08:05:03;;;;;;;5.70;5.20;;;;;;;1.97;57.37;95518.63;5143640;27;20233;-65
2022/01/29 08:07:28;;;;;;;6.80;5.27;;;;;;;2.03;57.39;95525.22;5142207;27;20268;-64
2022/01/29 08:09:54;;;;;;;6.17;5.57;;;;;;;2.10;57.14;95521.34;5144397;27;20267;-65
2022/01/29 08:12:19;;;;;;;7.70;5.80;;;;;;;2.20;57.04;95526.84;5142989;27;20199;-65
2022/01/29 08:14:45;;;;;;;5.90;4.80;;;;;;;2.13;56.83;95512.56;5142871;27;20220;-67
2022/01/29 08:17:10;;;;;;;5.33;4.83;;;;;;;2.20;56.92;95525.09;5141553;27;20218;-67
2022/01/29 08:19:36;;;;;;;6.70;5.30;;;;;;;2.19;56.92;95528.63;5143882;27;20241;-65
2022/01/29 08:22:01;;;;;;;5.70;5.10;;;;;;;2.19;56.73;95536.41;5146309;27;20214;-68
2022/01/29 08:24:27;;;;;;;6.50;5.10;;;;;;;2.25;56.46;95531.78;5143605;27;20229;-67
2022/01/29 08:26:52;;;;;;;5.47;4.90;;;;;;;2.27;56.86;95524.72;5142051;27;20222;-66
2022/01/29 08:29:18;;;;;;;5.70;5.20;;;;;;;2.36;56.75;95527.63;5139790;27;20252;-66
2022/01/29 08:31:43;;;;;;;6.73;5.90;;;;;;;2.48;56.52;95533.84;5141209;27;20234;-66
2022/01/29 08:34:09;;;;;;;5.80;5.20;;;;;;;2.64;56.03;95531.19;5141851;27;20222;-66
2022/01/29 08:36:34;;;;;;;6.63;5.67;;;;;;;2.71;55.66;95531.69;5154997;27;20206;-66
2022/01/29 08:39:00;;;;;;;5.53;5.03;;;;;;;2.64;55.86;95526.84;5142623;27;20222;-66
2022/01/29 08:41:25;;;;;;;6.67;5.37;;;;;;;2.48;56.39;95533.84;5141106;27;20359;-66
2022/01/29 08:43:51;;;;;;;5.90;5.40;;;;;;;2.63;56.15;95532.97;5140078;27;20264;-66
2022/01/29 08:46:16;;;;;;;7.03;5.57;;;;;;;2.92;55.57;95538.19;5138508;27;20218;-66
2022/01/29 08:48:42;;;;;;;7.93;6.50;;;;;;;3.07;54.76;95539.88;5141219;27;20203;-64
2022/01/29 08:51:07;;;;;;;6.73;5.70;;;;;;;3.00;55.06;95541.16;5140677;27;20261;-67
2022/01/29 08:53:34;;;;;;;8.67;6.43;;;;;;;2.92;55.65;95550.34;5143880;27;20228;-69
2022/01/29 08:56:00;;;;;;;6.00;5.43;;;;;;;2.70;56.09;95545.56;5142460;27;20286;-66
2022/01/29 08:58:26;;;;;;;6.73;6.03;;;;;;;2.80;55.75;95544.09;5142084;27;20241;-66
2022/01/29 09:00:51;;;;;;;6.13;5.53;;;;;;;2.75;55.50;95533.16;5140359;27;20202;-66
2022/01/29 09:03:18;;;;;;;5.97;5.37;;;;;;;3.02;55.64;95556.63;5140663;27;20273;-66
2022/01/29 09:05:45;;;;;;;7.57;6.03;;;;;;;3.09;55.44;95548.38;5142750;27;20214;-67
2022/01/29 09:08:12;;;;;;;7.37;6.73;;;;;;;3.38;54.41;95558.75;5156847;27;20229;-66
2022/01/29 09:10:38;;;;;;;7.87;6.60;;;;;;;3.59;54.07;95558.38;5139243;27;20283;-68
2022/01/29 09:13:04;;;;;;;7.17;6.20;;;;;;;4.02;52.99;95553.03;5155368;27;20218;-67
2022/01/29 09:15:29;;;;;;;7.00;6.23;;;;;;;4.20;52.19;95551.84;5156225;27;20290;-67
2022/01/29 09:17:55;;;;;;;6.73;6.03;;;;;;;3.76;52.98;95543.34;5141871;27;20240;-68
2022/01/29 09:20:20;;;;;;;7.53;6.80;;;;;;;3.89;53.15;95546.00;5140100;27;20229;-67
2022/01/29 09:22:46;;;;;;;7.93;6.80;;;;;;;4.10;53.13;95543.78;5140068;27;20305;-67
2022/01/29 09:25:12;;;;;;;8.10;6.60;;;;;;;4.19;52.54;95539.75;5136987;27;20218;-66
2022/01/29 09:27:37;;;;;;;7.40;6.70;;;;;;;4.26;51.94;95538.44;5140539;27;20211;-67
2022/01/29 09:30:05;;;;;;;7.67;6.90;;;;;;;4.22;52.42;95528.31;5140945;27;20265;-65
2022/01/29 09:32:30;;;;;;;7.50;6.63;;;;;;;4.31;52.22;95544.16;5140782;27;20221;-66
2022/01/29 09:34:56;;;;;;;9.13;6.47;;;;;;;4.37;51.87;95530.75;5153916;27;20361;-66
2022/01/29 09:37:21;;;;;;;7.77;6.10;;;;;;;3.58;53.49;95541.06;5141756;27;20226;-65
2022/01/29 09:39:47;;;;;;;6.17;5.67;;;;;;;3.59;52.99;95558.38;5139947;27;20278;-67
2022/01/29 09:42:14;;;;;;;7.27;6.57;;;;;;;3.57;53.16;95547.22;5156662;27;20202;-65
2022/01/29 09:44:42;;;;;;;7.80;7.00;;;;;;;3.26;54.31;95533.50;5139618;27;20269;-66
2022/01/29 09:47:09;;;;;;;8.20;7.40;;;;;;;3.27;54.29;95543.00;5142262;27;20237;-66
2022/01/29 09:49:35;;;;;;;9.23;6.60;;;;;;;3.42;54.28;95546.41;5140166;27;20238;-66
2022/01/29 09:52:02;;;;;;;7.70;5.80;;;;;;;3.32;53.93;95546.16;5140383;27;20218;-67
2022/01/29 09:54:28;;;;;;;7.70;6.90;;;;;;;3.65;52.97;95547.56;5141829;27;20328;-66
2022/01/29 09:56:53;;;;;;;8.10;7.30;;;;;;;4.03;52.01;95544.28;5139766;28;20214;-65
2022/01/29 09:59:19;;;;;;;8.00;7.20;;;;;;;4.22;51.71;95547.34;5141817;27;20278;-66
2022/01/29 10:01:44;;;;;;;7.27;6.43;;;;;;;3.64;52.93;95564.13;5141282;27;20241;-65
2022/01/29 10:04:10;;;;;;;7.80;6.97;;;;;;;3.37;53.44;95556.25;5141097;27;20266;-67
2022/01/29 10:06:37;;;;;;;8.80;6.60;;;;;;;3.32;53.34;95543.56;5143616;27;20277;-66
2022/01/29 10:09:09;;;;;;;7.93;7.23;;;;;;;3.59;53.32;95560.97;5160138;27;20263;-67
2022/01/29 10:11:35;;;;;;;8.13;6.63;;;;;;;3.57;52.75;95540.25;5146524;27;20437;-65
2022/01/29 10:14:02;;;;;;;7.50;6.57;;;;;;;3.78;52.49;95545.88;5147175;27;20229;-67
2022/01/29 10:16:30;;;;;;;7.07;6.37;;;;;;;3.85;52.52;95544.56;5141999;27;20219;-66
2022/01/29 10:19:06;;;;;;;7.40;6.60;;;;;;;3.76;52.37;95548.56;5127946;27;20232;-67
2022/01/29 10:21:36;;;;;;;6.27;5.67;;;;;;;3.56;52.27;95535.16;5143721;27;20278;-66
2022/01/29 10:24:08;;;;;;;7.03;6.10;;;;;;;3.56;52.94;95550.75;5141714;27;20206;-66
2022/01/29 10:26:40;;;;;;;6.87;6.27;;;;;;;3.53;53.18;95550.03;5146874;27;20302;-66
2022/01/29 10:29:15;;;;;;;7.03;6.37;;;;;;;3.52;54.68;95550.94;5144476;27;20231;-65
2022/01/29 10:31:45;;;;;;;6.60;6.00;;;;;;;3.49;53.71;95553.72;5142799;27;20222;-64
2022/01/29 10:34:40;;;;;;;7.53;6.83;;;;;;;3.22;54.95;95543.28;5146180;27;20269;-64
2022/01/29 10:37:25;;;;;;;7.60;7.00;;;;;;;3.03;55.58;95548.75;5138265;27;20218;-64
2022/01/29 10:39:59;;;;;;;9.67;7.03;;;;;;;2.98;56.24;95556.00;5140779;27;20194;-64
2022/01/29 10:42:36;;;;;;;8.17;7.43;;;;;;;2.96;56.40;95546.63;5138740;27;20361;-66
2022/01/29 10:45:07;;;;;;;9.03;7.03;;;;;;;3.14;55.22;95547.28;5139437;27;20278;-65
2022/01/29 10:47:53;;;;;;;8.97;7.20;;;;;;;3.33;55.36;95545.22;5139625;27;20203;-64
2022/01/29 10:50:18;;;;;;;8.83;7.60;;;;;;;3.44;54.87;95557.53;5140732;27;20269;-65
2022/01/29 10:52:44;;;;;;;8.07;7.27;;;;;;;3.56;55.00;95559.41;5144177;27;20226;-65
2022/01/29 10:55:09;;;;;;;8.80;7.93;;;;;;;3.44;54.98;95566.16;5143461;27;20289;-64
2022/01/29 10:57:46;;;;;;;7.93;7.10;;;;;;;3.47;54.61;95563.38;5142754;27;20202;-66
2022/01/29 11:00:23;;;;;;;9.20;8.20;;;;;;;3.62;54.96;95568.56;5145995;27;20282;-63
2022/01/29 11:02:50;;;;;;;8.80;7.77;;;;;;;3.38;55.12;95563.97;5146044;27;20218;-65
2022/01/29 11:05:17;;;;;;;8.80;7.77;;;;;;;3.44;55.79;95552.34;5140858;27;20219;-65
2022/01/29 11:07:46;;;;;;;9.23;8.00;;;;;;;3.36;55.97;95550.22;5141079;27;20230;-65
2022/01/29 11:10:11;;;;;;;8.57;7.67;;;;;;;3.10;56.36;95554.41;5157807;27;20219;-66
2022/01/29 11:12:42;;;;;;;8.70;7.87;;;;;;;3.21;56.14;95540.78;5142193;27;20199;-65
2022/01/29 11:15:08;;;;;;;8.77;7.57;;;;;;;3.40;55.90;95546.50;5143187;27;20274;-64
2022/01/29 11:17:34;;;;;;;9.27;8.20;;;;;;;3.68;54.39;95544.78;5140941;27;20226;-69
2022/01/29 11:20:02;;;;;;;9.67;8.67;;;;;;;3.67;55.20;95540.50;5144488;27;20224;-64
2022/01/29 11:22:38;;;;;;;9.90;7.30;;;;;;;3.53;54.72;95531.81;5144330;27;20301;-65
2022/01/29 11:25:06;;;;;;;9.13;8.10;;;;;;;3.48;55.51;95533.03;5142466;27;20245;-63
2022/01/29 11:27:41;;;;;;;9.10;8.13;;;;;;;3.66;54.67;95531.88;5145085;27;20214;-66
2022/01/29 11:32:53;;;;;;;10.37;9.27;;;;;;;3.68;54.90;95539.56;5144087;27;20261;-64
2022/01/29 11:35:29;;;;;;;10.70;9.50;;;;;;;3.95;54.97;95526.56;5144385;27;20218;-63
2022/01/29 11:38:08;;;;;;;12.70;9.93;;;;;;;3.91;54.73;95531.13;5146389;27;20222;-64
2022/01/29 11:40:51;;;;;;;9.50;8.60;;;;;;;3.78;53.52;95545.03;5145481;27;20257;-65
2022/01/29 11:43:20;;;;;;;9.43;8.33;;;;;;;3.78;54.15;95545.88;5141888;27;20298;-67
2022/01/29 11:45:45;;;;;;;10.47;9.40;;;;;;;3.73;54.11;95537.50;5144030;27;20225;-64
2022/01/29 11:48:27;;;;;;;9.67;8.27;;;;;;;3.61;54.39;95535.69;5142016;27;20223;-65
2022/01/29 11:50:54;;;;;;;9.37;8.47;;;;;;;3.61;54.24;95535.69;5160319;27;20230;-68
2022/01/29 11:53:22;;;;;;;9.47;8.53;;;;;;;3.62;54.17;95537.38;5143262;27;20320;-69
2022/01/29 11:55:54;;;;;;;9.90;8.87;;;;;;;3.87;53.62;95540.06;5143655;27;20256;-66